Time;durP1;ratioP1;P1;durP2;ratioP2;P2;SDS_P1;SDS_P2;PMS_P1;PMS_P2;Temp;Humidity;BMP_temperature;BMP_pressure;BME280_temperature;BME280_humidity;BME280_pressure;Samples;Min_cycle;Max_cycle;Signal;HPM_P1;HPM_P2
2023/02/20 00:01:51;;;;;;;5.40;2.90;;;;;;;13.68;31.58;99351.73;108069;1256;73207;-65
2023/02/20 00:04:20;;;;;;;10.50;3.30;;;;;;;13.62;31.56;99356.49;108070;1255;71262;-67
2023/02/20 00:06:49;;;;;;;9.50;3.40;;;;;;;13.54;31.59;99357.69;108028;1258;73928;-65
2023/02/20 00:09:17;;;;;;;10.10;3.10;;;;;;;13.50;31.55;99357.04;107919;1254;60371;-67
2023/02/20 00:11:48;;;;;;;5.20;2.80;;;;;;;13.60;31.39;99355.08;108040;1253;61140;-67
2023/02/20 00:14:22;;;;;;;7.00;3.00;;;;;;;13.32;31.55;99350.73;108067;1254;73901;-66
2023/02/20 00:16:50;;;;;;;9.50;3.30;;;;;;;13.27;31.61;99355.15;108111;1256;71009;-66
2023/02/20 00:19:19;;;;;;;6.60;2.80;;;;;;;13.35;31.42;99355.52;108064;1254;70891;-65
2023/02/20 00:21:49;;;;;;;6.30;2.80;;;;;;;13.37;31.33;99355.73;108063;1255;61728;-66
2023/02/20 00:24:19;;;;;;;5.50;2.40;;;;;;;13.41;31.10;99352.67;108056;1254;61324;-67
2023/02/20 00:26:48;;;;;;;6.90;3.10;;;;;;;13.54;31.05;99348.88;107991;1257;74134;-65
2023/02/20 00:29:23;;;;;;;7.60;2.90;;;;;;;13.59;30.96;99349.95;108113;1253;70397;-69
2023/02/20 00:31:55;;;;;;;6.90;2.60;;;;;;;13.52;30.93;99350.05;108125;1253;71807;-66
2023/02/20 00:34:27;;;;;;;11.80;2.60;;;;;;;13.30;31.08;99349.45;108101;1253;61182;-64
2023/02/20 00:36:59;;;;;;;7.70;2.20;;;;;;;13.25;31.17;99352.42;108165;1253;59549;-65
2023/02/20 00:39:30;;;;;;;9.10;2.80;;;;;;;13.02;31.20;99349.68;108175;1253;74037;-66
2023/02/20 00:41:59;;;;;;;10.40;3.00;;;;;;;13.25;31.02;99346.56;108034;1253;72387;-65
2023/02/20 00:44:32;;;;;;;6.00;2.80;;;;;;;13.46;30.55;99349.04;108023;1256;74395;-65
2023/02/20 00:47:02;;;;;;;3.10;1.80;;;;;;;13.38;30.52;99348.83;108022;1254;61385;-64
2023/02/20 00:49:32;;;;;;;6.50;2.60;;;;;;;13.32;30.66;99347.59;108052;1254;60955;-64
2023/02/20 00:52:14;;;;;;;6.50;2.70;;;;;;;13.13;30.81;99349.77;107983;1256;73409;-66
2023/02/20 00:54:42;;;;;;;8.80;2.80;;;;;;;13.26;30.65;99349.70;108047;1254;70567;-67
2023/02/20 00:57:12;;;;;;;6.30;2.70;;;;;;;13.48;30.55;99349.64;108030;1257;72000;-65
2023/02/20 00:59:41;;;;;;;8.30;2.60;;;;;;;13.35;30.53;99351.98;108024;1254;60285;-64
2023/02/20 01:02:20;;;;;;;5.20;2.10;;;;;;;13.43;30.56;99351.19;107987;1254;59793;-65
2023/02/20 01:04:50;;;;;;;7.10;2.60;;;;;;;13.34;30.57;99351.91;108016;1258;73737;-64
2023/02/20 01:07:19;;;;;;;5.40;2.70;;;;;;;13.12;30.77;99351.92;107939;1255;71208;-66
2023/02/20 01:09:47;;;;;;;7.70;2.40;;;;;;;13.04;30.90;99352.73;108090;1256;73606;-66
2023/02/20 01:12:15;;;;;;;5.30;2.40;;;;;;;13.21;30.58;99356.16;108041;1254;61413;-66
2023/02/20 01:14:44;;;;;;;8.20;2.70;;;;;;;13.27;30.49;99354.04;108014;1256;60211;-64
2023/02/20 01:17:13;;;;;;;7.20;2.30;;;;;;;13.38;30.36;99351.45;108098;1254;74327;-65
2023/02/20 01:19:43;;;;;;;4.40;2.20;;;;;;;13.32;30.36;99351.83;108104;1254;70222;-64
2023/02/20 01:22:11;;;;;;;5.70;2.80;;;;;;;13.34;30.38;99352.96;108100;1258;71721;-65
2023/02/20 01:24:42;;;;;;;5.00;2.30;;;;;;;13.17;30.37;99350.58;108166;1253;62358;-66
2023/02/20 01:27:10;;;;;;;4.60;2.40;;;;;;;13.19;30.32;99347.62;108033;1253;61334;-66
2023/02/20 01:29:38;;;;;;;5.60;2.40;;;;;;;12.69;30.98;99349.54;108105;1254;74061;-65
2023/02/20 01:32:13;;;;;;;7.10;2.30;;;;;;;13.06;30.50;99351.56;108155;1253;71356;-65
2023/02/20 01:34:48;;;;;;;6.70;2.40;;;;;;;13.10;30.35;99354.02;108173;1254;73300;-66
2023/02/20 01:37:17;;;;;;;5.80;2.60;;;;;;;13.24;30.29;99352.85;108150;1253;62090;-66
2023/02/20 01:39:46;;;;;;;4.70;2.30;;;;;;;13.20;30.25;99354.63;108153;1253;60556;-65
2023/02/20 01:42:21;;;;;;;5.10;2.40;;;;;;;13.35;30.19;99351.98;108144;1255;73899;-66
2023/02/20 01:44:49;;;;;;;3.60;2.10;;;;;;;13.63;29.87;99357.35;108036;1253;70053;-65
2023/02/20 01:47:21;;;;;;;5.10;2.50;;;;;;;13.52;29.90;99354.66;108170;1253;74013;-67
2023/02/20 01:49:51;;;;;;;6.80;2.60;;;;;;;13.64;29.83;99357.11;107956;1253;62409;-63
2023/02/20 01:52:29;;;;;;;3.50;2.10;;;;;;;13.59;29.87;99360.55;108137;1253;60690;-65
2023/02/20 01:55:00;;;;;;;4.60;2.20;;;;;;;13.36;30.15;99359.69;108147;1256;73233;-64
2023/02/20 01:57:31;;;;;;;7.60;2.10;;;;;;;13.55;30.07;99361.20;108153;1253;71562;-65
2023/02/20 02:00:10;;;;;;;4.10;2.10;;;;;;;13.23;30.31;99361.48;108012;1253;72966;-65
2023/02/20 02:02:44;;;;;;;5.30;2.60;;;;;;;13.24;30.27;99362.86;108103;1256;62124;-65
2023/02/20 02:05:12;;;;;;;4.60;2.30;;;;;;;13.07;30.51;99359.30;108121;1256;61094;-65
2023/02/20 02:07:40;;;;;;;7.70;2.30;;;;;;;12.99;30.65;99355.20;108144;1254;74058;-65
2023/02/20 02:10:13;;;;;;;6.70;2.40;;;;;;;13.28;30.42;99357.52;108144;1253;71641;-67
2023/02/20 02:12:44;;;;;;;4.50;2.20;;;;;;;13.59;29.99;99355.84;108079;1254;73912;-65
2023/02/20 02:15:14;;;;;;;7.90;2.30;;;;;;;13.81;29.60;99349.89;107911;1254;60685;-66
2023/02/20 02:17:53;;;;;;;5.10;2.60;;;;;;;13.59;29.80;99350.31;108076;1253;61195;-66
2023/02/20 02:20:49;;;;;;;3.00;2.00;;;;;;;13.39;29.93;99351.57;108146;1257;75208;-66
2023/02/20 02:23:51;;;;;;;5.60;2.40;;;;;;;13.28;30.09;99347.81;107821;1254;69585;-67
2023/02/20 02:26:57;;;;;;;4.40;2.40;;;;;;;13.23;30.23;99350.77;108154;1253;73887;-66
2023/02/20 02:29:48;;;;;;;4.80;2.50;;;;;;;13.44;29.97;99347.21;107995;1258;61269;-65
2023/02/20 02:32:23;;;;;;;8.50;2.30;;;;;;;13.35;30.03;99348.48;108057;1254;60257;-66
2023/02/20 02:35:23;;;;;;;4.20;2.30;;;;;;;13.22;30.26;99347.64;108003;1258;74974;-65
2023/02/20 02:38:17;;;;;;;8.20;2.60;;;;;;;13.22;30.15;99345.52;108072;1256;71447;-64
2023/02/20 02:40:57;;;;;;;4.90;2.20;;;;;;;13.04;30.42;99349.58;108158;1256;73114;-66
2023/02/20 02:43:51;;;;;;;4.60;2.20;;;;;;;13.04;30.43;99345.16;108000;1256;60331;-65
2023/02/20 02:46:34;;;;;;;4.80;2.30;;;;;;;13.00;30.51;99349.80;108101;1254;61260;-66
2023/02/20 02:49:19;;;;;;;6.50;2.10;;;;;;;12.92;30.50;99351.15;108001;1258;74888;-64
2023/02/20 02:51:47;;;;;;;4.80;2.30;;;;;;;12.82;30.60;99358.46;108084;1257;69206;-66
2023/02/20 02:54:27;;;;;;;7.30;2.90;;;;;;;12.95;30.45;99355.05;107995;1258;73363;-67
2023/02/20 02:57:20;;;;;;;3.60;2.20;;;;;;;13.03;30.35;99348.95;107975;1254;61051;-66
2023/02/20 02:59:53;;;;;;;3.90;2.50;;;;;;;12.85;30.52;99354.06;107997;1258;61044;-65
2023/02/20 03:02:21;;;;;;;5.20;2.20;;;;;;;13.05;30.27;99351.84;108162;1257;74792;-65
2023/02/20 03:04:50;;;;;;;10.60;2.50;;;;;;;12.98;30.46;99349.63;108161;1258;71169;-68
2023/02/20 03:07:18;;;;;;;5.70;2.30;;;;;;;13.20;30.09;99347.24;108141;1255;73136;-66
2023/02/20 03:09:51;;;;;;;5.40;2.40;;;;;;;13.33;30.01;99347.91;108154;1254;62540;-66
2023/02/20 03:12:20;;;;;;;5.40;2.50;;;;;;;13.12;30.06;99350.55;108254;1256;61164;-66
2023/02/20 03:17:57;;;;;;;6.30;2.50;;;;;;;12.95;30.28;99342.54;108147;1254;71348;-66
2023/02/20 03:20:25;;;;;;;8.90;2.50;;;;;;;12.71;30.61;99346.77;108091;1254;73776;-65
2023/02/20 03:22:58;;;;;;;5.20;2.40;;;;;;;12.60;30.77;99346.39;107980;1259;62698;-65
2023/02/20 03:25:29;;;;;;;5.50;2.50;;;;;;;12.78;30.50;99347.77;108113;1258;61299;-65
2023/02/20 03:28:05;;;;;;;;;;;;;;;12.78;30.36;99348.83;108265;1254;74739;-66
2023/02/20 03:30:59;;;;;;;7.70;2.70;;;;;;;12.68;30.50;99347.98;108109;1253;70055;-65
2023/02/20 03:44:53;;;;;;;6.40;2.60;;;;;;;12.51;30.81;99352.71;108108;1259;69739;-65
2023/02/20 03:47:26;;;;;;;5.20;2.20;;;;;;;12.59;30.70;99351.73;108046;1259;72306;-66
2023/02/20 03:49:55;;;;;;;6.20;2.70;;;;;;;12.76;30.46;99350.85;107983;1260;62587;-66
2023/02/20 03:52:24;;;;;;;11.80;2.20;;;;;;;12.73;30.45;99349.31;107979;1253;60485;-66
2023/02/20 03:54:52;;;;;;;4.50;2.40;;;;;;;12.67;30.41;99351.03;108081;1259;73876;-65
2023/02/20 03:57:25;;;;;;;8.80;2.60;;;;;;;12.63;30.59;99350.59;108205;1254;70280;-65
2023/02/20 03:59:56;;;;;;;7.70;3.00;;;;;;;12.50;30.66;99352.20;108151;1254;71732;-65
2023/02/20 04:02:29;;;;;;;9.60;2.20;;;;;;;12.69;30.50;99350.41;108150;1257;61643;-65
2023/02/20 04:05:06;;;;;;;5.40;2.80;;;;;;;12.70;30.47;99346.63;108088;1253;60358;-67
2023/02/20 04:07:47;;;;;;;4.30;2.20;;;;;;;12.59;30.46;99347.27;108010;1254;74804;-66
2023/02/20 04:10:19;;;;;;;5.20;2.30;;;;;;;12.74;30.34;99349.23;108134;1253;70701;-65
2023/02/20 04:12:51;;;;;;;3.90;2.10;;;;;;;13.14;29.96;99348.30;108082;1257;73528;-66
2023/02/20 04:15:19;;;;;;;5.20;2.30;;;;;;;13.09;29.85;99348.92;108022;1254;62995;-65
2023/02/20 04:18:00;;;;;;;7.60;2.40;;;;;;;13.23;29.68;99345.63;107993;1254;61254;-66
2023/02/20 04:20:28;;;;;;;6.60;2.70;;;;;;;13.25;29.56;99341.13;108180;1253;74905;-68
2023/02/20 04:23:13;;;;;;;6.20;2.20;;;;;;;13.01;29.79;99341.48;108142;1254;70750;-66
2023/02/20 04:25:46;;;;;;;6.30;2.50;;;;;;;13.18;29.74;99343.34;107980;1254;71345;-65
2023/02/20 04:28:15;;;;;;;5.50;2.10;;;;;;;12.92;29.78;99339.91;108114;1254;62903;-66
2023/02/20 04:30:49;;;;;;;10.10;2.30;;;;;;;12.73;30.02;99336.27;108002;1254;61334;-66
2023/02/20 04:33:19;;;;;;;5.00;2.50;;;;;;;13.05;29.66;99338.77;108161;1254;74390;-66
2023/02/20 04:35:48;;;;;;;5.70;2.30;;;;;;;13.02;29.66;99335.27;108153;1254;70038;-66
2023/02/20 04:38:17;;;;;;;6.00;2.20;;;;;;;13.26;29.39;99333.10;108117;1255;73671;-66
2023/02/20 04:40:45;;;;;;;6.40;2.50;;;;;;;13.30;29.39;99331.10;108185;1254;63287;-66
2023/02/20 04:43:14;;;;;;;7.90;2.30;;;;;;;13.17;29.31;99329.09;108094;1253;60306;-66
2023/02/20 04:45:47;;;;;;;11.50;2.50;;;;;;;13.10;29.38;99331.39;108044;1253;74638;-66
2023/02/20 04:48:15;;;;;;;4.40;2.40;;;;;;;13.13;29.34;99335.47;108098;1256;71302;-66
2023/02/20 04:50:43;;;;;;;5.40;2.70;;;;;;;13.00;29.41;99338.04;108014;1253;73674;-66
2023/02/20 04:53:12;;;;;;;7.70;2.50;;;;;;;12.95;29.55;99335.47;108052;1259;63023;-62
2023/02/20 04:55:41;;;;;;;5.40;2.50;;;;;;;12.46;30.02;99337.31;108120;1254;61527;-65
2023/02/20 04:58:13;;;;;;;4.20;2.00;;;;;;;12.57;29.93;99338.63;108073;1254;74529;-64
2023/02/20 05:01:05;;;;;;;5.20;2.20;;;;;;;12.34;30.22;99338.52;108021;1254;71286;-64
2023/02/20 05:03:34;;;;;;;6.70;2.40;;;;;;;12.21;30.30;99343.12;108043;1254;73741;-65
2023/02/20 05:06:04;;;;;;;4.90;1.90;;;;;;;12.38;30.11;99352.42;108067;1254;61707;-66
2023/02/20 05:08:33;;;;;;;5.20;2.10;;;;;;;12.01;30.58;99357.27;108134;1253;61081;-66
2023/02/20 05:11:00;;;;;;;7.80;2.60;;;;;;;12.48;30.20;99357.77;108070;1254;74350;-66
2023/02/20 05:13:30;;;;;;;6.10;2.40;;;;;;;12.65;29.85;99363.70;108161;1254;71592;-65
2023/02/20 05:15:58;;;;;;;5.20;2.40;;;;;;;12.69;29.64;99362.40;108134;1253;73401;-66
2023/02/20 05:18:28;;;;;;;5.20;2.40;;;;;;;11.81;30.47;99367.08;108044;1254;61154;-67
2023/02/20 05:23:47;;;;;;;4.90;2.40;;;;;;;12.87;29.62;99360.48;108111;1253;74886;-65
2023/02/20 05:26:20;;;;;;;3.40;1.80;;;;;;;13.11;29.32;99360.61;108071;1256;71315;-66
2023/02/20 05:28:48;;;;;;;3.30;2.00;;;;;;;12.88;29.46;99358.98;108136;1257;73880;-66
2023/02/20 05:31:16;;;;;;;5.20;1.90;;;;;;;12.78;29.40;99359.60;108186;1257;62112;-67
2023/02/20 05:33:45;;;;;;;8.10;2.20;;;;;;;12.81;29.53;99365.72;108156;1254;61113;-66
2023/02/20 05:36:14;;;;;;;4.90;2.00;;;;;;;12.87;29.44;99361.89;108199;1254;72794;-66
2023/02/20 05:38:47;;;;;;;5.10;2.20;;;;;;;12.92;29.30;99358.73;108171;1254;71251;-67
2023/02/20 05:41:16;;;;;;;4.70;1.90;;;;;;;13.45;29.02;99354.37;108168;1256;73120;-67
2023/02/20 05:43:44;;;;;;;4.90;2.20;;;;;;;13.86;28.32;99357.48;108121;1253;62975;-67
2023/02/20 05:46:14;;;;;;;6.10;2.30;;;;;;;13.50;28.56;99358.61;108206;1253;60434;-64
2023/02/20 05:48:42;;;;;;;4.60;2.10;;;;;;;12.59;29.76;99365.59;108177;1256;74884;-65
2023/02/20 05:51:27;;;;;;;13.40;2.40;;;;;;;12.67;29.77;99363.73;108129;1254;71567;-66
2023/02/20 05:53:55;;;;;;;5.70;2.50;;;;;;;12.83;29.69;99363.15;108160;1253;73596;-66
2023/02/20 05:56:24;;;;;;;5.40;2.30;;;;;;;13.08;29.35;99362.05;108185;1254;62192;-65
2023/02/20 05:58:52;;;;;;;4.20;2.10;;;;;;;12.83;29.58;99366.15;108103;1253;61580;-67
2023/02/20 06:01:22;;;;;;;4.30;2.00;;;;;;;12.74;29.90;99364.90;108144;1254;74713;-65
2023/02/20 06:03:51;;;;;;;5.90;2.50;;;;;;;12.99;29.55;99367.15;108118;1254;71181;-68
2023/02/20 06:06:19;;;;;;;5.50;2.40;;;;;;;13.69;29.12;99368.42;108147;1253;73391;-68
2023/02/20 06:08:47;;;;;;;6.30;2.30;;;;;;;14.44;28.76;99367.38;108124;1254;61959;-68
2023/02/20 06:11:16;;;;;;;4.20;2.10;;;;;;;14.86;27.78;99371.67;108135;1254;61167;-65
2023/02/20 06:13:45;;;;;;;6.80;2.40;;;;;;;16.16;27.08;99376.01;108062;1256;75127;-66
2023/02/20 06:16:20;;;;;;;8.60;2.30;;;;;;;16.90;25.83;99371.45;108118;1254;71107;-65
2023/02/20 06:18:49;;;;;;;4.70;2.00;;;;;;;17.20;24.96;99370.98;108104;1254;71802;-66
2023/02/20 06:21:17;;;;;;;3.90;2.10;;;;;;;17.75;24.45;99369.89;108148;1254;60781;-65
2023/02/20 06:23:47;;;;;;;5.70;2.00;;;;;;;18.16;24.24;99374.83;108106;1254;59638;-67
2023/02/20 06:26:16;;;;;;;2.90;1.60;;;;;;;19.08;23.27;99371.95;108102;1254;74486;-66
2023/02/20 06:28:44;;;;;;;4.90;1.90;;;;;;;19.71;22.47;99372.66;108035;1254;71365;-65
2023/02/20 06:31:12;;;;;;;4.90;1.60;;;;;;;19.49;22.10;99374.64;107966;1254;73729;-65
2023/02/20 06:33:40;;;;;;;5.40;2.10;;;;;;;19.67;22.17;99377.45;107965;1254;60331;-66
2023/02/20 06:36:20;;;;;;;4.10;1.50;;;;;;;19.68;21.85;99375.70;108032;1254;61058;-65
2023/02/20 06:38:49;;;;;;;3.50;1.70;;;;;;;19.83;21.69;99376.79;108059;1254;75317;-66
2023/02/20 06:41:17;;;;;;;5.60;1.90;;;;;;;20.82;21.27;99377.77;108159;1257;69265;-66
2023/02/20 06:43:46;;;;;;;5.80;1.60;;;;;;;21.31;20.60;99381.38;108047;1254;73119;-66
2023/02/20 06:46:14;;;;;;;3.80;1.50;;;;;;;21.48;20.13;99375.20;107992;1254;60640;-66
2023/02/20 06:48:47;;;;;;;3.80;1.70;;;;;;;21.97;19.84;99380.54;107970;1254;60768;-67
2023/02/20 06:51:16;;;;;;;6.00;1.60;;;;;;;22.08;19.56;99376.64;107892;1257;74922;-67
2023/02/20 06:53:44;;;;;;;4.00;1.50;;;;;;;22.24;19.38;99379.22;107927;1256;70032;-63
2023/02/20 06:56:21;;;;;;;5.00;1.90;;;;;;;22.61;19.36;99372.72;107958;1257;73732;-67
2023/02/20 06:58:52;;;;;;;3.00;1.50;;;;;;;23.21;18.79;99372.63;107921;1258;61110;-67
2023/02/20 07:01:25;;;;;;;5.10;2.00;;;;;;;23.39;18.52;99371.89;108013;1257;61533;-66
2023/02/20 07:03:54;;;;;;;4.60;1.70;;;;;;;23.19;18.51;99372.64;107972;1258;74072;-67
2023/02/20 07:06:28;;;;;;;4.20;1.40;;;;;;;22.67;18.65;99372.62;108004;1257;71561;-68
2023/02/20 07:08:56;;;;;;;3.90;1.70;;;;;;;23.13;18.69;99378.64;107980;1255;72719;-67
2023/02/20 07:11:24;;;;;;;5.60;1.70;;;;;;;22.83;18.32;99369.47;107978;1257;61071;-67
2023/02/20 07:13:52;;;;;;;12.40;1.80;;;;;;;22.50;18.56;99368.64;107998;1257;61309;-67
2023/02/20 07:16:20;;;;;;;5.70;2.20;;;;;;;22.04;19.11;99378.02;107854;1258;74809;-66
2023/02/20 07:18:50;;;;;;;2.90;1.70;;;;;;;22.30;18.74;99379.67;108009;1259;70598;-66
2023/02/20 07:21:20;;;;;;;8.50;2.20;;;;;;;22.42;18.60;99376.38;108033;1257;73325;-66
2023/02/20 07:23:48;;;;;;;6.40;2.20;;;;;;;22.90;18.43;99381.65;107958;1260;60331;-66
2023/02/20 07:26:20;;;;;;;4.20;1.70;;;;;;;23.53;18.39;99379.04;108014;1255;61563;-67
2023/02/20 07:28:48;;;;;;;5.10;1.80;;;;;;;23.93;17.77;99384.40;108015;1254;74708;-67
2023/02/20 07:31:16;;;;;;;2.90;1.70;;;;;;;23.65;17.40;99382.59;108060;1258;70611;-66
2023/02/20 07:33:45;;;;;;;4.10;1.90;;;;;;;23.55;17.76;99378.24;107965;1254;72481;-68
2023/02/20 07:36:14;;;;;;;3.50;1.50;;;;;;;23.44;17.59;99379.59;107963;1254;61279;-67
2023/02/20 07:38:42;;;;;;;6.80;2.20;;;;;;;23.54;17.55;99383.17;107936;1254;60311;-69
2023/02/20 07:41:10;;;;;;;4.50;1.70;;;;;;;23.98;17.41;99378.30;107963;1254;74909;-67
2023/02/20 07:43:38;;;;;;;4.60;1.70;;;;;;;24.12;17.28;99378.02;107951;1254;72053;-68
2023/02/20 07:46:08;;;;;;;13.30;1.90;;;;;;;23.77;17.42;99376.15;107958;1254;71736;-67
2023/02/20 07:48:37;;;;;;;3.40;1.80;;;;;;;23.95;17.38;99378.45;107994;1254;60483;-64
2023/02/20 07:51:07;;;;;;;4.80;1.50;;;;;;;24.09;17.17;99370.86;108179;1253;61388;-65
2023/02/20 07:53:36;;;;;;;4.10;1.50;;;;;;;24.12;17.20;99364.98;108243;1253;73865;-67
2023/02/20 07:56:04;;;;;;;4.10;1.70;;;;;;;24.29;17.33;99371.64;108194;1253;70605;-66
2023/02/20 07:58:32;;;;;;;5.50;1.70;;;;;;;24.62;16.56;99370.14;108135;1253;71493;-65
2023/02/20 08:01:01;;;;;;;3.70;1.90;;;;;;;24.36;16.81;99367.95;108213;1254;61209;-63
2023/02/20 08:03:30;;;;;;;5.40;1.70;;;;;;;24.14;17.03;99370.54;108215;1256;61536;-65
2023/02/20 08:05:58;;;;;;;6.70;1.80;;;;;;;24.17;16.93;99370.41;108286;1252;74792;-67
2023/02/20 08:08:31;;;;;;;6.80;1.80;;;;;;;23.91;17.03;99371.48;108191;1256;70938;-68
2023/02/20 08:10:59;;;;;;;4.40;1.60;;;;;;;24.19;16.65;99371.38;108158;1252;72662;-67
2023/02/20 08:13:37;;;;;;;4.00;1.40;;;;;;;23.73;17.00;99366.20;108170;1254;60468;-67
2023/02/20 08:16:05;;;;;;;5.40;2.30;;;;;;;24.19;16.88;99361.91;108151;1254;61216;-68
2023/02/20 08:18:34;;;;;;;6.00;1.70;;;;;;;24.48;16.63;99374.23;108264;1252;74704;-67
2023/02/20 08:21:03;;;;;;;4.10;1.40;;;;;;;24.80;16.29;99366.52;108229;1254;69590;-68
2023/02/20 08:23:31;;;;;;;3.10;1.40;;;;;;;24.55;16.29;99376.98;108228;1252;73747;-68
2023/02/20 08:25:59;;;;;;;4.90;1.30;;;;;;;24.45;16.31;99373.73;108230;1253;61519;-68
2023/02/20 08:28:28;;;;;;;2.90;1.20;;;;;;;24.72;16.39;99377.98;108155;1253;61364;-66
2023/02/20 08:30:56;;;;;;;2.40;1.20;;;;;;;24.97;15.88;99378.84;108058;1254;74918;-68
2023/02/20 08:33:25;;;;;;;4.00;1.40;;;;;;;24.73;15.96;99386.52;108092;1253;71300;-68
2023/02/20 08:35:54;;;;;;;5.70;1.30;;;;;;;24.54;16.03;99384.73;108064;1253;72404;-66
2023/02/20 08:38:25;;;;;;;5.30;1.30;;;;;;;24.17;16.08;99399.99;108049;1253;61531;-66
2023/02/20 08:40:53;;;;;;;2.70;1.20;;;;;;;23.70;16.18;99389.10;108103;1253;60431;-67
2023/02/20 08:43:21;;;;;;;2.80;1.10;;;;;;;23.75;16.15;99389.84;108026;1253;75041;-66
2023/02/20 08:45:51;;;;;;;3.10;1.30;;;;;;;23.34;16.56;99377.40;108147;1253;69724;-66
2023/02/20 08:48:24;;;;;;;2.20;1.10;;;;;;;23.09;16.75;99379.17;108038;1253;73619;-67
2023/02/20 08:50:52;;;;;;;5.10;1.30;;;;;;;23.20;16.64;99372.16;108041;1253;61634;-68
2023/02/20 08:53:20;;;;;;;9.30;1.50;;;;;;;23.73;16.68;99373.88;108107;1257;61073;-65
2023/02/20 08:55:49;;;;;;;5.60;1.50;;;;;;;24.10;16.24;99366.98;108099;1253;74794;-68
2023/02/20 08:58:21;;;;;;;4.30;1.60;;;;;;;24.30;15.95;99371.48;108119;1253;71478;-68
2023/02/20 09:00:51;;;;;;;5.90;1.50;;;;;;;24.79;15.92;99359.66;108107;1253;73690;-68
2023/02/20 09:03:19;;;;;;;3.40;1.50;;;;;;;25.03;15.71;99350.81;108081;1253;60510;-67
2023/02/20 09:05:47;;;;;;;3.30;1.40;;;;;;;25.12;15.41;99344.92;108081;1257;61007;-67
2023/02/20 09:08:16;;;;;;;2.80;1.30;;;;;;;24.14;15.80;99353.63;108052;1253;74813;-67
2023/02/20 09:10:47;;;;;;;5.80;1.50;;;;;;;24.52;15.92;99361.98;108111;1253;71706;-67
2023/02/20 09:13:16;;;;;;;2.90;1.30;;;;;;;25.18;15.74;99360.98;108110;1253;73958;-69
2023/02/20 09:15:44;;;;;;;3.80;1.20;;;;;;;25.85;15.31;99357.82;108088;1253;60453;-67
2023/02/20 09:18:14;;;;;;;4.40;1.50;;;;;;;26.13;14.69;99360.91;108136;1253;60918;-67
2023/02/20 09:20:42;;;;;;;3.60;1.40;;;;;;;26.46;14.66;99364.55;108147;1253;73026;-68
2023/02/20 09:23:12;;;;;;;4.50;1.30;;;;;;;25.86;14.45;99361.98;108170;1253;70839;-68
2023/02/20 09:25:41;;;;;;;5.70;1.50;;;;;;;25.86;14.69;99362.35;108195;1257;73234;-67
2023/02/20 09:28:09;;;;;;;3.80;1.10;;;;;;;25.85;14.67;99362.83;108152;1252;60428;-69
2023/02/20 09:30:39;;;;;;;1.40;1.10;;;;;;;25.89;14.55;99364.40;108297;1252;60441;-68
2023/02/20 09:33:10;;;;;;;3.00;1.30;;;;;;;26.20;14.53;99355.23;108284;1252;71926;-68
2023/02/20 09:35:40;;;;;;;4.10;1.40;;;;;;;26.40;14.48;99343.79;108280;1253;72410;-68
2023/02/20 09:38:08;;;;;;;3.70;1.20;;;;;;;26.17;14.45;99343.45;108291;1253;73936;-67
2023/02/20 09:40:37;;;;;;;3.80;1.50;;;;;;;26.27;14.38;99333.94;108322;1256;61221;-68
2023/02/20 09:43:17;;;;;;;2.00;1.10;;;;;;;26.94;14.32;99334.23;108168;1253;61386;-69
2023/02/20 09:45:55;;;;;;;7.40;1.80;;;;;;;27.00;13.92;99335.14;108279;1254;74906;-68
2023/02/20 09:48:55;;;;;;;3.50;1.50;;;;;;;27.00;13.58;99329.91;108266;1253;68813;-69
2023/02/20 09:51:35;;;;;;;4.40;1.50;;;;;;;26.29;13.91;99327.73;108231;1252;73698;-67
2023/02/20 09:54:27;;;;;;;3.80;1.40;;;;;;;26.32;14.14;99325.52;108292;1252;61592;-68
2023/02/20 09:56:59;;;;;;;3.40;1.20;;;;;;;25.65;14.28;99328.59;108290;1255;60290;-69
2023/02/20 09:59:32;;;;;;;11.60;2.50;;;;;;;25.36;14.42;99317.79;108269;1253;75042;-66
2023/02/20 10:02:17;;;;;;;3.30;1.40;;;;;;;25.38;14.54;99316.54;108202;1257;71642;-67
2023/02/20 10:07:31;;;;;;;4.10;1.50;;;;;;;22.54;16.56;99318.89;104990;1289;600728;-67
2023/02/20 10:09:59;;;;;;;3.00;1.60;;;;;;;24.61;15.21;99311.89;107426;1263;59929;-67
2023/02/20 10:12:50;;;;;;;4.00;1.40;;;;;;;24.37;14.91;99303.88;107464;1263;61737;-67
2023/02/20 10:15:23;;;;;;;2.90;1.50;;;;;;;24.12;14.99;99301.94;107399;1263;73242;-67
2023/02/20 10:18:30;;;;;;;4.50;1.60;;;;;;;24.60;15.09;99295.33;107397;1263;69216;-67
2023/02/20 10:21:05;;;;;;;4.40;1.70;;;;;;;24.38;15.10;99291.51;107642;1257;209653;-66
2023/02/20 10:23:56;;;;;;;4.40;1.60;;;;;;;24.62;14.78;99298.52;107803;1257;60365;-66
2023/02/20 10:26:35;;;;;;;4.20;1.90;;;;;;;24.22;14.72;99287.38;107823;1257;60451;-67
2023/02/20 10:29:23;;;;;;;5.80;1.70;;;;;;;23.94;15.08;99284.58;107792;1257;73510;-67
2023/02/20 10:32:04;;;;;;;4.80;1.70;;;;;;;23.32;15.39;99298.06;108175;1253;69748;-66
2023/02/20 10:34:39;;;;;;;4.00;1.70;;;;;;;22.96;15.56;99297.60;108161;1253;73897;-67
2023/02/20 10:37:13;;;;;;;4.10;1.70;;;;;;;22.99;15.68;99291.77;108167;1253;61337;-66
2023/02/20 10:39:47;;;;;;;3.90;1.50;;;;;;;23.35;15.74;99287.73;108129;1253;60311;-68
2023/02/20 10:42:29;;;;;;;3.50;1.80;;;;;;;23.09;15.63;99285.89;108039;1253;74241;-68
2023/02/20 10:45:04;;;;;;;4.10;1.50;;;;;;;23.10;15.81;99279.52;108031;1253;70258;-69
2023/02/20 10:47:49;;;;;;;4.50;1.60;;;;;;;23.62;15.52;99283.31;108180;1253;73972;-68
2023/02/20 10:50:24;;;;;;;3.70;1.80;;;;;;;23.40;15.30;99277.76;108099;1254;60608;-67
2023/02/20 10:53:01;;;;;;;4.40;1.40;;;;;;;22.22;16.13;99273.20;108053;1254;59718;-69
2023/02/20 10:55:57;;;;;;;3.50;1.70;;;;;;;22.24;16.30;99266.52;107803;1254;74175;-67
2023/02/20 10:58:34;;;;;;;3.50;1.80;;;;;;;22.61;16.37;99269.87;107977;1256;69735;-67
2023/02/20 11:01:07;;;;;;;5.30;2.00;;;;;;;22.89;16.02;99261.30;108051;1254;72875;-67
2023/02/20 11:03:56;;;;;;;6.90;2.10;;;;;;;22.85;16.12;99256.52;107913;1254;61534;-65
2023/02/20 11:06:35;;;;;;;8.40;2.90;;;;;;;22.87;16.48;99256.13;108068;1254;61247;-68
2023/02/20 11:09:04;;;;;;;3.60;1.90;;;;;;;21.99;16.74;99260.92;107933;1254;73066;-68
2023/02/20 11:11:40;;;;;;;;;;;;;;;21.24;17.15;99264.48;108069;1254;72556;-68
2023/02/20 11:14:19;;;;;;;3.30;2.00;;;;;;;21.24;17.17;99256.00;108086;1254;71083;-68
2023/02/20 11:17:15;;;;;;;5.10;2.20;;;;;;;21.91;17.13;99249.29;108000;1254;61129;-68
2023/02/20 11:19:47;;;;;;;3.40;1.70;;;;;;;21.51;17.22;99251.88;108191;1258;60414;-67
2023/02/20 11:22:18;;;;;;;10.60;2.20;;;;;;;22.20;16.71;99244.58;108188;1255;72868;-67
2023/02/20 11:24:47;;;;;;;6.00;2.30;;;;;;;21.41;17.28;99249.28;107979;1254;69919;-68
2023/02/20 11:27:15;;;;;;;6.10;2.00;;;;;;;21.40;17.40;99249.67;108108;1254;72834;-68
2023/02/20 11:30:30;;;;;;;11.00;2.50;;;;;;;22.03;17.16;99242.73;108009;1257;61662;-66
2023/02/20 11:33:24;;;;;;;6.80;2.70;;;;;;;21.85;17.14;99257.79;107965;1254;59812;-68
2023/02/20 11:36:07;;;;;;;5.70;2.30;;;;;;;21.46;17.50;99253.13;107984;1254;72787;-66
2023/02/20 11:38:36;;;;;;;5.80;2.60;;;;;;;20.78;17.85;99256.27;108134;1254;71635;-66
2023/02/20 11:41:35;;;;;;;7.90;2.60;;;;;;;21.01;17.99;99252.70;107931;1257;73842;-68
2023/02/20 11:44:07;;;;;;;5.60;2.20;;;;;;;20.88;18.26;99246.23;108072;1254;59567;-68
2023/02/20 11:46:36;;;;;;;6.90;2.60;;;;;;;21.01;18.02;99235.21;108032;1256;60705;-66
2023/02/20 11:49:25;;;;;;;7.20;2.10;;;;;;;21.33;17.76;99237.13;108002;1254;74479;-65
2023/02/20 11:52:17;;;;;;;6.70;3.00;;;;;;;20.48;18.03;99232.77;108132;1256;70471;-67
2023/02/20 11:54:47;;;;;;;5.20;2.20;;;;;;;20.23;18.32;99242.40;108012;1254;72862;-68
2023/02/20 11:57:15;;;;;;;4.20;2.10;;;;;;;20.46;18.27;99239.04;108171;1254;59641;-68
2023/02/20 11:59:49;;;;;;;3.90;2.10;;;;;;;20.38;18.04;99242.25;108049;1254;60343;-67
2023/02/20 12:02:23;;;;;;;7.10;2.50;;;;;;;20.46;17.94;99240.14;108258;1252;72690;-68
2023/02/20 12:05:11;;;;;;;4.90;2.30;;;;;;;20.34;18.12;99241.08;108258;1256;70886;-68
2023/02/20 12:07:49;;;;;;;5.70;2.10;;;;;;;20.19;18.26;99245.84;108344;1252;72637;-67
2023/02/20 12:10:24;;;;;;;5.50;2.10;;;;;;;20.23;18.18;99238.80;108209;1253;59598;-67
2023/02/20 12:12:56;;;;;;;5.10;1.70;;;;;;;20.37;18.24;99228.86;108265;1252;61568;-65